Achilles, Virginia
Current Conditions -  °F | °C
As of 10:54 PM on Sunday 23 Nov 2014 (Local Time) from KPHF Reporting Station
Light Rain Light Rain  
Wind Chill: 66°   Ceiling: 4800
Heat Index: 66°   Visibility: 5mi
Dew Point: 59°   Wind: 14mph
Humidity: 78%   Direction: 150°SSE
Pressure: 29.88"   Gusts: 21mph
Location:  37.28°N, 76.44°W
Report Text: KPHF 240354Z 15012G18KT 5SM -RA FEW017 BKN048 OVC100 19/15 A2988 RMK AO2 RAE0255B35 SLP118 P0001 T01890150 $
Loading
Personal Weather Stations






























Interactive Weather Map New forecast layout! Learn more

10-Day Weather Forecast

Advertisements
Track Severe Weather on mobile